createdAt,value
2024-01-04T00:00:25.006Z,1.50
2024-01-04T00:02:53.398Z,1.27
2024-01-04T00:05:21.901Z,2.53
2024-01-04T00:07:50.260Z,0.73
2024-01-04T00:10:19.022Z,1.40
2024-01-04T00:12:48.912Z,2.73
2024-01-04T00:15:17.509Z,1.40
2024-01-04T00:17:47.383Z,3.10
2024-01-04T00:20:15.935Z,2.93
2024-01-04T00:22:44.497Z,3.47
2024-01-04T00:25:12.744Z,3.07
2024-01-04T00:27:41.027Z,7.33
2024-01-04T00:30:10.069Z,4.03
2024-01-04T00:32:38.703Z,6.67
2024-01-04T00:35:08.961Z,5.90
2024-01-04T00:37:37.568Z,4.03
2024-01-04T00:40:06.306Z,4.57
2024-01-04T00:42:34.616Z,3.93
2024-01-04T00:45:03.025Z,6.87
2024-01-04T00:47:31.434Z,4.20
2024-01-04T00:49:59.735Z,5.10
2024-01-04T00:52:29.381Z,8.53
2024-01-04T00:54:58.292Z,5.13
2024-01-04T00:57:26.604Z,4.87
2024-01-04T00:59:55.149Z,6.13
2024-01-04T01:02:25.868Z,6.87
2024-01-04T01:04:54.304Z,5.03
2024-01-04T01:07:22.644Z,6.97
2024-01-04T01:09:53.355Z,8.53
2024-01-04T01:12:22.032Z,5.90
2024-01-04T01:14:50.439Z,4.13
2024-01-04T01:17:26.283Z,4.77
2024-01-04T01:20:04.239Z,4.23
2024-01-04T01:22:32.687Z,8.47
2024-01-04T01:25:02.381Z,4.50
2024-01-04T01:27:30.630Z,6.00
2024-01-04T01:29:59.071Z,5.10
2024-01-04T01:32:27.400Z,8.20
2024-01-04T01:34:56.206Z,7.20
2024-01-04T01:37:24.534Z,3.00
2024-01-04T01:39:52.777Z,5.63
2024-01-04T01:42:22.760Z,5.17
2024-01-04T01:44:51.056Z,8.83
2024-01-04T01:47:19.466Z,6.37
2024-01-04T01:49:47.935Z,4.13
2024-01-04T01:52:16.521Z,5.67
2024-01-04T01:54:45.105Z,3.30
2024-01-04T01:57:13.458Z,7.20
2024-01-04T01:59:43.302Z,9.70
2024-01-04T02:02:11.881Z,5.60
2024-01-04T02:04:41.776Z,9.37
2024-01-04T02:07:10.311Z,9.53
2024-01-04T02:09:38.784Z,7.30
2024-01-04T02:12:16.655Z,8.97
2024-01-04T02:14:46.575Z,6.43
2024-01-04T02:17:14.932Z,9.03
2024-01-04T02:19:44.464Z,7.60
2024-01-04T02:22:13.148Z,9.67
2024-01-04T02:24:51.121Z,4.40
2024-01-04T02:27:26.849Z,7.20
2024-01-04T02:29:55.287Z,7.67
2024-01-04T02:32:23.540Z,12.10
2024-01-04T02:34:52.051Z,6.70
2024-01-04T02:37:22.331Z,5.07
2024-01-04T02:39:52.008Z,7.70
2024-01-04T02:42:20.335Z,7.37
2024-01-04T02:44:48.708Z,6.50
2024-01-04T02:47:16.994Z,8.27
2024-01-04T02:49:45.321Z,4.23
2024-01-04T02:52:13.592Z,7.73
2024-01-04T02:54:41.860Z,5.97
2024-01-04T02:57:11.630Z,7.73
2024-01-04T02:59:40.591Z,9.30
2024-01-04T03:02:08.953Z,8.23
2024-01-04T03:04:37.792Z,10.23
2024-01-04T03:07:06.235Z,5.50
2024-01-04T03:09:34.627Z,8.67
2024-01-04T03:12:03.559Z,4.50
2024-01-04T03:14:33.334Z,9.57
2024-01-04T03:17:01.717Z,6.50
2024-01-04T03:19:30.101Z,5.43
2024-01-04T03:21:58.564Z,4.20
2024-01-04T03:24:26.885Z,4.37
2024-01-04T03:26:55.179Z,3.10
2024-01-04T03:29:23.580Z,4.13
2024-01-04T03:31:53.270Z,3.63
2024-01-04T03:34:21.687Z,2.63
2024-01-04T03:36:50.149Z,2.30
2024-01-04T03:39:18.585Z,1.30
2024-01-04T03:41:47.114Z,0.70
2024-01-04T03:44:15.380Z,1.23
2024-01-04T03:46:43.755Z,2.80
2024-01-04T03:49:13.592Z,1.30
2024-01-04T03:51:42.006Z,0.97
2024-01-04T03:54:10.333Z,3.33
2024-01-04T03:56:39.288Z,2.00
2024-01-04T03:59:07.617Z,1.57
2024-01-04T04:01:36.022Z,2.17
2024-01-04T04:04:04.364Z,1.53
2024-01-04T04:06:34.091Z,1.37
2024-01-04T04:09:03.299Z,5.83
2024-01-04T04:11:31.643Z,1.33
2024-01-04T04:13:59.992Z,1.40
2024-01-04T04:16:28.321Z,2.10
2024-01-04T04:18:56.895Z,2.03
2024-01-04T04:21:25.959Z,1.10
2024-01-04T04:23:55.652Z,1.53
2024-01-04T04:26:24.339Z,2.13
2024-01-04T04:28:52.961Z,1.93
2024-01-04T04:31:21.887Z,1.20
2024-01-04T04:33:51.353Z,1.43
2024-01-04T04:36:19.829Z,2.10
2024-01-04T04:38:51.137Z,3.20
2024-01-04T04:41:26.043Z,1.90
2024-01-04T04:43:54.431Z,4.13
2024-01-04T04:46:23.116Z,2.83
2024-01-04T04:48:56.206Z,3.53
2024-01-04T04:51:26.368Z,3.47
2024-01-04T04:53:54.905Z,5.63
2024-01-04T04:56:24.594Z,3.17
2024-01-04T04:58:52.980Z,5.87
2024-01-04T05:01:21.398Z,5.67
2024-01-04T05:03:50.041Z,5.93
2024-01-04T05:06:18.641Z,6.03
2024-01-04T05:08:47.260Z,10.67
2024-01-04T05:11:15.613Z,8.73
2024-01-04T05:13:45.209Z,9.50
2024-01-04T05:16:13.508Z,4.57
2024-01-04T05:18:42.006Z,9.00
2024-01-04T05:21:10.420Z,10.07
2024-01-04T05:23:41.028Z,5.00
2024-01-04T05:26:09.445Z,11.13
2024-01-04T05:28:37.808Z,9.33
2024-01-04T05:31:07.611Z,8.50
2024-01-04T05:33:36.032Z,7.83
2024-01-04T05:36:04.419Z,8.73
2024-01-04T05:38:32.692Z,9.43
2024-01-04T05:41:01.002Z,11.40
2024-01-04T05:43:30.544Z,14.07
2024-01-04T05:45:58.920Z,10.70
2024-01-04T05:48:28.839Z,6.43
2024-01-04T05:50:57.322Z,12.47
2024-01-04T05:53:25.666Z,4.33
2024-01-04T05:55:54.474Z,9.63
2024-01-04T05:58:22.788Z,16.17
2024-01-04T06:00:51.142Z,4.77
2024-01-04T06:03:19.570Z,6.43
2024-01-04T06:05:49.429Z,5.43
2024-01-04T06:08:17.839Z,6.40
2024-01-04T06:10:46.563Z,9.37
2024-01-04T06:13:14.921Z,3.80
2024-01-04T06:15:43.200Z,6.47
2024-01-04T06:18:11.590Z,7.77
2024-01-04T06:20:40.481Z,4.90
2024-01-04T06:23:10.200Z,8.70
2024-01-04T06:25:38.572Z,5.90
2024-01-04T06:28:07.324Z,8.63
2024-01-04T06:30:37.190Z,6.80
2024-01-04T06:33:17.731Z,7.93
2024-01-04T06:35:47.763Z,8.03
2024-01-04T06:38:17.456Z,9.23
2024-01-04T06:40:45.708Z,4.90
2024-01-04T06:43:23.994Z,8.23
2024-01-04T06:45:54.747Z,9.10
2024-01-04T06:48:23.229Z,9.00
2024-01-04T06:50:51.653Z,9.87
2024-01-04T06:53:21.489Z,9.93
2024-01-04T06:55:49.852Z,8.20
2024-01-04T06:58:18.206Z,10.03
2024-01-04T07:00:46.596Z,6.70
2024-01-04T07:03:15.120Z,9.17
2024-01-04T07:05:43.644Z,7.03
2024-01-04T07:08:12.118Z,5.03
2024-01-04T07:10:51.025Z,3.97
2024-01-04T07:13:25.258Z,3.67
2024-01-04T07:15:55.817Z,5.10
2024-01-04T07:18:24.190Z,5.87
2024-01-04T07:20:52.732Z,3.87
2024-01-04T07:23:21.289Z,6.20
2024-01-04T07:25:51.694Z,6.93
2024-01-04T07:28:20.004Z,3.27
2024-01-04T07:30:48.381Z,3.00
2024-01-04T07:33:16.826Z,3.20
2024-01-04T07:35:45.381Z,2.60
2024-01-04T07:38:13.727Z,4.87
2024-01-04T07:40:42.046Z,3.93
2024-01-04T07:43:12.584Z,4.60
2024-01-04T07:45:40.977Z,6.60
2024-01-04T07:48:13.097Z,2.77
2024-01-04T07:50:42.084Z,4.63
2024-01-04T07:53:10.345Z,4.57
2024-01-04T07:55:39.869Z,5.03
2024-01-04T07:58:08.289Z,5.30
2024-01-04T08:00:38.049Z,3.93
2024-01-04T08:03:06.684Z,4.73
2024-01-04T08:05:35.147Z,4.63
2024-01-04T08:08:03.505Z,4.83
2024-01-04T08:10:32.043Z,5.17
2024-01-04T08:13:00.505Z,6.93
2024-01-04T08:15:29.872Z,5.40
2024-01-04T08:18:05.562Z,5.77
2024-01-04T08:20:35.625Z,3.70
2024-01-04T08:23:04.328Z,6.10
2024-01-04T08:25:32.651Z,4.60
2024-01-04T08:28:01.058Z,6.70
2024-01-04T08:30:29.457Z,4.33
2024-01-04T08:32:58.000Z,7.57
2024-01-04T08:35:27.775Z,5.73
2024-01-04T08:37:56.074Z,7.30
2024-01-04T08:40:24.376Z,5.20
2024-01-04T08:42:52.754Z,4.67
2024-01-04T08:45:21.695Z,10.33
2024-01-04T08:47:50.288Z,5.33
2024-01-04T08:50:18.987Z,4.13
2024-01-04T08:52:48.903Z,4.77
2024-01-04T08:55:19.326Z,3.43
2024-01-04T08:57:47.643Z,3.43
2024-01-04T09:00:16.464Z,3.67
2024-01-04T09:02:46.859Z,5.57
2024-01-04T09:05:15.459Z,5.87
2024-01-04T09:07:43.927Z,2.93
2024-01-04T09:10:13.687Z,4.63
2024-01-04T09:12:46.441Z,7.93
2024-01-04T09:15:15.402Z,3.20
2024-01-04T09:17:44.414Z,2.67
2024-01-04T09:20:14.553Z,6.23
2024-01-04T09:22:42.997Z,4.87
2024-01-04T09:25:11.408Z,6.03
2024-01-04T09:27:41.108Z,2.90
2024-01-04T09:30:10.477Z,8.73
2024-01-04T09:32:38.870Z,7.87
2024-01-04T09:35:07.727Z,5.93
2024-01-04T09:37:36.101Z,4.63
2024-01-04T09:40:05.241Z,4.60
2024-01-04T09:42:34.145Z,4.30
2024-01-04T09:45:05.182Z,3.57
2024-01-04T09:47:34.632Z,5.57
2024-01-04T09:50:04.973Z,8.20
2024-01-04T09:52:34.024Z,6.17
2024-01-04T09:55:04.506Z,10.93
2024-01-04T09:57:34.927Z,10.40
2024-01-04T10:00:05.433Z,7.73
2024-01-04T10:02:35.533Z,7.77
2024-01-04T10:05:04.667Z,9.00
2024-01-04T10:07:35.236Z,11.17
2024-01-04T10:10:08.925Z,8.50
2024-01-04T10:12:38.083Z,10.37
2024-01-04T10:15:09.510Z,9.73
2024-01-04T10:17:38.886Z,13.47
2024-01-04T10:20:08.480Z,10.27
2024-01-04T10:22:36.908Z,13.20
2024-01-04T10:25:11.630Z,13.87
2024-01-04T10:27:40.077Z,10.93
2024-01-04T10:30:10.422Z,18.87
2024-01-04T10:32:38.886Z,14.27
2024-01-04T10:35:09.818Z,12.60
2024-01-04T10:37:38.304Z,10.77
2024-01-04T10:40:10.910Z,14.60
2024-01-04T10:42:39.339Z,13.80
2024-01-04T10:45:11.205Z,16.37
2024-01-04T10:47:42.709Z,17.17
2024-01-04T10:50:12.705Z,12.13
2024-01-04T10:52:42.504Z,20.43
2024-01-04T10:55:10.858Z,11.07
2024-01-04T10:57:40.316Z,14.13
2024-01-04T11:00:09.654Z,11.27
2024-01-04T11:02:38.365Z,13.73
2024-01-04T11:05:10.408Z,17.27
2024-01-04T11:07:40.612Z,9.63
2024-01-04T11:10:10.388Z,15.07
2024-01-04T11:12:38.903Z,10.83
2024-01-04T11:15:07.734Z,12.20
2024-01-04T11:17:43.376Z,14.13
2024-01-04T11:20:23.122Z,13.10
2024-01-04T11:22:57.664Z,10.13
2024-01-04T11:25:31.040Z,13.73
2024-01-04T11:28:00.184Z,12.00
2024-01-04T11:30:28.785Z,20.43
2024-01-04T11:32:57.384Z,16.50
2024-01-04T11:35:27.485Z,12.40
2024-01-04T11:37:55.884Z,15.77
2024-01-04T11:40:28.086Z,14.20
2024-01-04T11:42:57.025Z,17.40
2024-01-04T11:45:26.172Z,12.43
2024-01-04T11:47:55.025Z,12.23
2024-01-04T11:50:27.311Z,10.67
2024-01-04T11:53:05.529Z,20.13
2024-01-04T11:55:34.967Z,10.50
2024-01-04T11:58:06.960Z,17.43
2024-01-04T12:00:36.136Z,11.10
2024-01-04T12:03:04.946Z,15.83
2024-01-04T12:05:35.929Z,24.37
2024-01-04T12:08:04.448Z,15.43
2024-01-04T12:10:32.756Z,10.90
2024-01-04T12:13:01.096Z,13.87
2024-01-04T12:15:29.693Z,14.43
2024-01-04T12:17:58.370Z,12.97
2024-01-04T12:20:26.777Z,10.60
2024-01-04T12:22:56.506Z,6.03
2024-01-04T12:25:24.838Z,11.33
2024-01-04T12:27:53.236Z,8.07
2024-01-04T12:30:21.630Z,13.43
2024-01-04T12:32:50.008Z,11.47
2024-01-04T12:35:18.754Z,9.23
2024-01-04T12:37:47.775Z,10.70
2024-01-04T12:40:17.676Z,6.90
2024-01-04T12:42:45.991Z,12.17
2024-01-04T12:45:14.367Z,9.27
2024-01-04T12:47:43.303Z,13.00
2024-01-04T12:50:13.050Z,9.10
2024-01-04T12:52:42.241Z,9.63
2024-01-04T12:55:11.047Z,9.50
2024-01-04T12:57:40.762Z,8.27
2024-01-04T13:00:09.809Z,11.33
2024-01-04T13:02:38.102Z,10.40
2024-01-04T13:05:06.887Z,10.30
2024-01-04T13:07:35.346Z,9.43
2024-01-04T13:10:03.853Z,11.10
2024-01-04T13:12:32.257Z,10.23
2024-01-04T13:15:02.055Z,10.37
2024-01-04T13:17:32.168Z,9.43
2024-01-04T13:20:00.725Z,10.27
2024-01-04T13:22:29.259Z,16.90
2024-01-04T13:24:59.163Z,11.33
2024-01-04T13:27:30.035Z,15.20
2024-01-04T13:29:58.961Z,10.17
2024-01-04T13:32:28.839Z,15.00
2024-01-04T13:34:57.604Z,16.73
2024-01-04T13:37:26.542Z,13.30
2024-01-04T13:39:54.958Z,13.53
2024-01-04T13:42:23.441Z,15.10
2024-01-04T13:44:51.793Z,13.27
2024-01-04T13:47:20.046Z,14.33
2024-01-04T13:49:49.959Z,13.63
2024-01-04T13:52:18.287Z,18.33
2024-01-04T13:54:46.626Z,10.40
2024-01-04T13:57:15.023Z,11.17
2024-01-04T13:59:43.516Z,18.37
2024-01-04T14:02:11.956Z,13.27
2024-01-04T14:04:40.371Z,13.67
2024-01-04T14:07:10.053Z,13.13
2024-01-04T14:09:38.515Z,10.43
2024-01-04T14:12:08.041Z,11.73
2024-01-04T14:14:36.497Z,11.27
2024-01-04T14:17:04.822Z,9.87
2024-01-04T14:19:33.241Z,9.00
2024-01-04T14:22:01.648Z,15.33
2024-01-04T14:24:31.383Z,10.03
2024-01-04T14:26:59.857Z,15.10
2024-01-04T14:29:28.371Z,12.23
2024-01-04T14:31:56.736Z,9.53
2024-01-04T14:34:26.216Z,20.73
2024-01-04T14:36:55.057Z,7.63
2024-01-04T14:39:23.512Z,13.40
2024-01-04T14:41:53.380Z,7.37
2024-01-04T14:44:22.210Z,10.33
2024-01-04T14:46:50.521Z,14.27
2024-01-04T14:49:19.082Z,11.47
2024-01-04T14:51:47.588Z,10.73
2024-01-04T14:54:15.995Z,8.93
2024-01-04T14:56:44.597Z,8.40
2024-01-04T14:59:14.672Z,12.27
2024-01-04T15:01:43.154Z,13.53
2024-01-04T15:04:12.628Z,7.20
2024-01-04T15:06:41.150Z,11.60
2024-01-04T15:09:09.631Z,10.97
2024-01-04T15:11:39.488Z,17.47
2024-01-04T15:14:07.968Z,8.67
2024-01-04T15:16:37.732Z,10.77
2024-01-04T15:19:06.291Z,10.40
2024-01-04T15:21:34.848Z,13.63
2024-01-04T15:24:03.232Z,13.63
2024-01-04T15:26:31.639Z,8.47
2024-01-04T15:29:00.035Z,13.37
2024-01-04T15:31:28.457Z,14.80
2024-01-04T15:33:58.339Z,13.30
2024-01-04T15:36:26.862Z,10.27
2024-01-04T15:38:56.202Z,11.30
2024-01-04T15:41:25.564Z,11.10
2024-01-04T15:43:54.364Z,7.93
2024-01-04T15:46:23.054Z,10.37
2024-01-04T15:48:51.648Z,9.70
2024-01-04T15:51:21.758Z,10.27
2024-01-04T15:53:50.374Z,12.87
2024-01-04T15:56:24.056Z,11.67
2024-01-04T15:58:52.696Z,6.50
2024-01-04T16:01:21.496Z,14.53
2024-01-04T16:03:51.817Z,9.30
2024-01-04T16:06:22.280Z,11.23
2024-01-04T16:08:50.802Z,13.17
2024-01-04T16:11:19.200Z,8.57
2024-01-04T16:13:47.621Z,9.83
2024-01-04T16:16:16.669Z,8.17
2024-01-04T16:18:45.298Z,14.33
2024-01-04T16:21:14.012Z,13.33
2024-01-04T16:23:43.808Z,13.33
2024-01-04T16:26:14.835Z,8.00
2024-01-04T16:28:44.720Z,10.10
2024-01-04T16:31:13.102Z,13.73
2024-01-04T16:33:41.662Z,13.73
2024-01-04T16:36:11.221Z,16.07
2024-01-04T16:38:39.724Z,12.93
2024-01-04T16:41:12.353Z,13.07
2024-01-04T16:43:41.058Z,15.00
2024-01-04T16:46:09.533Z,14.77
2024-01-04T16:48:38.082Z,5.60
2024-01-04T16:51:06.812Z,13.27
2024-01-04T16:53:35.836Z,12.37
2024-01-04T16:56:04.829Z,6.93
2024-01-04T16:58:34.485Z,13.70
2024-01-04T17:01:03.043Z,9.20
2024-01-04T17:03:31.495Z,11.03
2024-01-04T17:06:00.367Z,9.30
2024-01-04T17:08:28.742Z,9.93
2024-01-04T17:10:57.122Z,8.90
2024-01-04T17:13:25.463Z,14.33
2024-01-04T17:15:55.168Z,9.53
2024-01-04T17:18:25.485Z,10.27
2024-01-04T17:20:53.895Z,12.43
2024-01-04T17:23:24.336Z,18.67
2024-01-04T17:25:52.660Z,10.93
2024-01-04T17:28:21.112Z,8.53
2024-01-04T17:30:53.130Z,9.97
2024-01-04T17:33:23.159Z,9.80
2024-01-04T17:36:04.328Z,9.20
2024-01-04T17:38:42.745Z,11.67
2024-01-04T17:41:12.067Z,9.87
2024-01-04T17:43:40.498Z,9.00
2024-01-04T17:46:08.860Z,14.23
2024-01-04T17:48:38.657Z,11.73
2024-01-04T17:51:07.240Z,10.77
2024-01-04T17:53:35.650Z,12.40
2024-01-04T17:56:03.985Z,14.60
2024-01-04T17:58:32.410Z,9.40
2024-01-04T18:01:00.766Z,7.63
2024-01-04T18:03:29.193Z,4.93
2024-01-04T18:05:58.980Z,7.87
2024-01-04T18:08:27.320Z,5.40
2024-01-04T18:10:55.879Z,13.47
2024-01-04T18:13:24.334Z,11.83
2024-01-04T18:15:52.662Z,8.20
2024-01-04T18:18:21.063Z,10.63
2024-01-04T18:20:49.850Z,10.20
2024-01-04T18:23:19.621Z,9.73
2024-01-04T18:25:49.701Z,11.80
2024-01-04T18:28:19.671Z,8.97
2024-01-04T18:30:48.105Z,12.30
2024-01-04T18:33:16.589Z,7.20
2024-01-04T18:35:47.281Z,10.07
2024-01-04T18:38:16.478Z,20.63
2024-01-04T18:40:46.228Z,9.73
2024-01-04T18:43:15.348Z,9.40
2024-01-04T18:45:43.735Z,7.47
2024-01-04T18:48:12.294Z,9.47
2024-01-04T18:50:40.729Z,7.23
2024-01-04T18:53:09.121Z,8.70
2024-01-04T18:55:37.493Z,9.47
2024-01-04T18:58:07.275Z,7.40
2024-01-04T19:00:36.627Z,12.23
2024-01-04T19:03:05.263Z,4.50
2024-01-04T19:05:33.799Z,10.97
2024-01-04T19:08:02.223Z,9.83
2024-01-04T19:10:30.548Z,10.63
2024-01-04T19:12:58.782Z,9.20
2024-01-04T19:15:32.169Z,7.57
2024-01-04T19:18:02.670Z,11.33
2024-01-04T19:20:30.975Z,7.60
2024-01-04T19:23:00.914Z,7.17
2024-01-04T19:25:29.191Z,5.50
2024-01-04T19:27:57.534Z,4.07
2024-01-04T19:30:26.051Z,10.40
2024-01-04T19:32:56.085Z,5.47
2024-01-04T19:35:24.460Z,10.33
2024-01-04T19:37:53.663Z,8.03
2024-01-04T19:40:22.018Z,9.80
2024-01-04T19:42:51.206Z,7.40
2024-01-04T19:45:20.212Z,8.20
2024-01-04T19:47:48.621Z,7.57
2024-01-04T19:50:18.441Z,8.87
2024-01-04T19:52:46.821Z,10.87
2024-01-04T19:55:15.269Z,8.87
2024-01-04T19:57:43.697Z,7.83
2024-01-04T20:00:12.936Z,5.63
2024-01-04T20:02:41.974Z,10.67
2024-01-04T20:05:10.905Z,8.73
2024-01-04T20:07:40.844Z,9.33
2024-01-04T20:10:09.483Z,12.03
2024-01-04T20:12:37.900Z,8.37
2024-01-04T20:15:06.609Z,15.33
2024-01-04T20:17:35.536Z,10.83
2024-01-04T20:20:04.604Z,8.57
2024-01-04T20:22:32.993Z,12.00
2024-01-04T20:25:02.719Z,8.80
2024-01-04T20:27:31.302Z,12.30
2024-01-04T20:29:59.749Z,10.57
2024-01-04T20:32:28.093Z,7.87
2024-01-04T20:34:56.508Z,11.90
2024-01-04T20:37:24.865Z,12.63
2024-01-04T20:39:53.179Z,12.10
2024-01-04T20:42:23.090Z,12.87
2024-01-04T20:44:51.528Z,10.53
2024-01-04T20:47:19.854Z,11.87
2024-01-04T20:49:51.716Z,7.37
2024-01-04T20:52:20.564Z,9.00
2024-01-04T20:54:50.795Z,11.13
2024-01-04T20:57:19.085Z,11.40
2024-01-04T20:59:48.837Z,14.67
2024-01-04T21:02:19.005Z,12.23
2024-01-04T21:04:47.279Z,9.30
2024-01-04T21:07:15.578Z,7.87
2024-01-04T21:09:44.172Z,13.63
2024-01-04T21:12:12.615Z,8.50
2024-01-04T21:14:40.998Z,14.43
2024-01-04T21:17:10.623Z,11.63
2024-01-04T21:19:39.088Z,12.63
2024-01-04T21:22:07.506Z,14.90
2024-01-04T21:24:36.286Z,8.90
2024-01-04T21:27:04.795Z,11.37
2024-01-04T21:29:33.186Z,9.13
2024-01-04T21:32:02.444Z,10.23
2024-01-04T21:34:32.256Z,14.53
2024-01-04T21:37:00.665Z,7.67
2024-01-04T21:39:31.182Z,9.03
2024-01-04T21:41:59.599Z,10.90
2024-01-04T21:44:28.064Z,14.23
2024-01-04T21:46:56.421Z,12.50
2024-01-04T21:49:24.857Z,14.80
2024-01-04T21:51:54.622Z,8.00
2024-01-04T21:54:23.031Z,6.13
2024-01-04T21:56:51.401Z,7.67
2024-01-04T21:59:19.734Z,10.43
2024-01-04T22:01:48.087Z,15.07
2024-01-04T22:04:16.466Z,14.17
2024-01-04T22:06:45.902Z,9.70
2024-01-04T22:09:17.081Z,11.47
2024-01-04T22:11:45.906Z,11.53
2024-01-04T22:14:14.206Z,9.27
2024-01-04T22:16:42.975Z,8.47
2024-01-04T22:19:13.543Z,13.10
2024-01-04T22:21:42.197Z,10.40
2024-01-04T22:24:10.617Z,12.07
2024-01-04T22:26:41.958Z,8.07
2024-01-04T22:29:12.851Z,11.90
2024-01-04T22:31:41.183Z,8.27
2024-01-04T22:34:09.711Z,8.90
2024-01-04T22:36:38.128Z,12.57
2024-01-04T22:39:06.587Z,6.80
2024-01-04T22:41:34.903Z,7.03
2024-01-04T22:44:04.611Z,11.53
2024-01-04T22:46:33.730Z,6.50
2024-01-04T22:49:02.093Z,10.83
2024-01-04T22:51:30.470Z,6.80
2024-01-04T22:54:00.364Z,11.23
2024-01-04T22:56:29.010Z,4.83
2024-01-04T22:58:57.309Z,9.57
2024-01-04T23:01:26.978Z,7.60
2024-01-04T23:03:55.503Z,10.93
2024-01-04T23:06:24.008Z,7.03
2024-01-04T23:08:52.569Z,8.73
2024-01-04T23:11:20.881Z,7.10
2024-01-04T23:13:49.161Z,5.73
2024-01-04T23:16:17.461Z,4.30
2024-01-04T23:18:47.269Z,5.33
2024-01-04T23:21:15.799Z,13.57
2024-01-04T23:23:44.045Z,6.40
2024-01-04T23:26:12.695Z,3.57
2024-01-04T23:28:41.704Z,9.07
2024-01-04T23:31:10.203Z,7.03
2024-01-04T23:33:43.894Z,6.57
2024-01-04T23:36:19.189Z,9.63
2024-01-04T23:38:49.740Z,9.10
2024-01-04T23:41:18.106Z,9.30
2024-01-04T23:43:46.489Z,5.10
2024-01-04T23:46:14.898Z,7.27
2024-01-04T23:48:43.339Z,11.83
2024-01-04T23:51:11.796Z,5.80
2024-01-04T23:53:40.525Z,8.70
2024-01-04T23:56:08.832Z,8.33
2024-01-04T23:58:37.149Z,6.93
